Strona główna
METAR-TAF:

METAR-TAF

Lotnisko :

Dayton, Ohio, Stany Zjednoczone

Szerokość geograficzna: 39-35-20N, Długość geograficzna: 084-13-29W, wysokość: 292 m

Aktualna obserwacja pogody

Raport powstał 28 minut temu, godzina 13:53 UTC
Wiatr 8 kt od zachodnio-południowy zachód
Temperatura 29°C
Wilgotność 74%
Ciśnienie 1016 hPa
Widzialność: 14.5 km
Przerywane chmury na wysokości 1400 ft

METAR: KMGY 191353Z AUTO 24008KT 9SM BKN014 29/24 A3001 RMK AO2 SLP152 T02890244

czas: 10:21 (14:21 UTC)


TAF: brakujący

Obserwacja i prognoza pogody dla ponad 4000 lotnisk (raport METAR i TAF).

Dostępne stacje oznaczono żółtymi i czerwonymi punktami na mapie.

Najedź kursorem aby zobaczyć nazwę stacji.

Kliknij aby zobaczyć obserwacje i prognozy pogody.

Aby zmienić mapę: kliknij na zielony przycisk z czarnym krzyżykiem, aby powiększyć; na zielony przycisk z myślnikiem, aby pomniejszyć; na zielone strzałki, aby przejść do map sąsiednich.


METAR-TAF: